Marina Lobra — IXVN — position and weather

sailwx.info

Track history (hours):
 
Tides and Currents Weather Stations Pressure Air Temp Water Temp Dewpoint Dewpoint Depression Visibility Wind Speed Wind Dir Waves Ship Positions

Marina Lobra

Last reported at 2015-Aug-28 06:32 UTC. Time now 2015-Aug-28 17:10 UTC.
Position N 40°50' E 014°16'.

Length 56 m; draft 2.5 m.

Type: Ship (hazmat cat C). MMSI: 247188300.

Date/timePositionNaut miles runAvg speedWind from/ knotsBaromVisibWave heightAir tempDewpointWater temp
2015-Aug-28 06:32N 40°50' E 014°16'5 5.0
2015-Aug-28 05:34N 40°45' E 014°18'5 5.3
2015-Aug-28 04:33N 40°40' E 014°17'5 5.4
2015-Aug-28 03:34N 40°35' E 014°15'2 1.6
2015-Aug-28 02:33N 40°33' E 014°14'0 0.0
2015-Aug-28 01:33N 40°33' E 014°14'0 0.0
2015-Aug-28 00:33N 40°33' E 014°14'0 0.0
2015-Aug-27 23:33N 40°33' E 014°14'0 0.0
2015-Aug-27 22:34N 40°33' E 014°14'0 0.0
2015-Aug-27 21:29N 40°33' E 014°14'1 0.7
2015-Aug-27 20:33N 40°34' E 014°15'5 4.6
2015-Aug-27 19:33N 40°38' E 014°16'6 5.5
2015-Aug-27 18:33N 40°44' E 014°17'6 5.5
2015-Aug-27 17:31N 40°49' E 014°18'1 0.9
2015-Aug-27 16:33N 40°50' E 014°17'0 0.0
2015-Aug-27 15:33N 40°50' E 014°17'0 0.0
2015-Aug-27 14:33N 40°50' E 014°17'0 0.0
2015-Aug-27 13:33N 40°50' E 014°17'0 0.0
2015-Aug-27 12:33N 40°50' E 014°17'0 0.0
2015-Aug-26 11:15N 40°50' E 014°17'0 0.1
2015-Aug-26 10:33N 40°50' E 014°17'0 0.0
2015-Aug-26 09:33N 40°50' E 014°17'0 0.0
2015-Aug-26 08:33N 40°50' E 014°17'0 0.0
2015-Aug-26 07:32N 40°50' E 014°17'1 0.0
2015-Aug-25 11:09N 40°50' E 014°16'0 0.0
2015-Aug-25 10:06N 40°50' E 014°16'1 1.4
2015-Aug-25 09:32N 40°50' E 014°17'0 0.0
2015-Aug-25 08:33N 40°50' E 014°17'0 0.0
2015-Aug-25 07:34N 40°50' E 014°17'0 0.0
2015-Aug-25 06:28N 40°50' E 014°17'1 0.1
2015-Aug-24 14:08N 40°50' E 014°15'1 2.6
2015-Aug-24 13:33N 40°50' E 014°17'0 0.0
2015-Aug-24 12:33N 40°50' E 014°17'0 0.0
2015-Aug-24 11:33N 40°50' E 014°17'0 0.0
2015-Aug-24 10:33N 40°50' E 014°17'0 0.0
2015-Aug-24 09:33N 40°50' E 014°17'0 0.0
2015-Aug-24 08:33N 40°50' E 014°17'0 0.0
2015-Aug-24 07:33N 40°50' E 014°17'0 0.0
2015-Aug-24 06:33N 40°50' E 014°17'  
2015-Aug-21 06:31N 40°50' E 014°16'5 5.0
2015-Aug-21 05:34N 40°45' E 014°17'5 5.4
2015-Aug-21 04:33N 40°40' E 014°16'5 5.3
2015-Aug-21 03:33N 40°35' E 014°15'1 1.5
2015-Aug-21 02:33N 40°33' E 014°14'0 0.0
2015-Aug-21 01:33N 40°33' E 014°14'0 0.0
2015-Aug-21 00:33N 40°33' E 014°14'0 0.0
2015-Aug-20 23:33N 40°33' E 014°14'0 0.0
2015-Aug-20 22:32N 40°33' E 014°14'0 0.0
2015-Aug-20 21:31N 40°33' E 014°14'1 1.4
2015-Aug-20 20:33N 40°35' E 014°15'5 5.1
2015-Aug-20 19:32N 40°40' E 014°16'5 5.2
2015-Aug-20 18:33N 40°45' E 014°17'5 5.1
2015-Aug-20 17:32N 40°50' E 014°18'0 0.3
2015-Aug-20 16:32N 40°50' E 014°17'0 0.0
2015-Aug-20 15:33N 40°50' E 014°17'0 0.0
2015-Aug-20 14:32N 40°50' E 014°17'0 0.0
2015-Aug-20 13:24N 40°50' E 014°17'0 0.0
2015-Aug-20 12:21N 40°50' E 014°17'0 0.0
2015-Aug-20 11:29N 40°50' E 014°17'0 0.0
2015-Aug-20 10:33N 40°50' E 014°17'0 0.0
2015-Aug-20 09:33N 40°50' E 014°17'1 0.0
2015-Aug-19 12:33N 40°50' E 014°16'1 0.6
2015-Aug-19 11:07N 40°50' E 014°17'0 0.0
2015-Aug-19 10:30N 40°50' E 014°17'0 0.0
2015-Aug-19 09:22N 40°50' E 014°17'0 0.0
2015-Aug-19 08:23N 40°50' E 014°17'0 0.0
2015-Aug-19 07:26N 40°50' E 014°17'  
Track history (hours):
 
Tides and Currents Weather Stations Pressure Air Temp Water Temp Dewpoint Dewpoint Depression Visibility Wind Speed Wind Dir Waves Ship Positions

Marina Lobra

Last reported at 2015-Aug-28 06:32 UTC. Time now 2015-Aug-28 17:10 UTC.
Position N 40°50' E 014°16'.

Length 56 m; draft 2.5 m.

Type: Ship (hazmat cat C). MMSI: 247188300.

Date/timePositionNaut miles runAvg speedWind from/ knotsBaromVisibWave heightAir tempDewpointWater temp
2015-Aug-28 06:32N 40°50' E 014°16'5 5.0
2015-Aug-28 05:34N 40°45' E 014°18'5 5.3
2015-Aug-28 04:33N 40°40' E 014°17'5 5.4
2015-Aug-28 03:34N 40°35' E 014°15'2 1.6
2015-Aug-28 02:33N 40°33' E 014°14'0 0.0
2015-Aug-28 01:33N 40°33' E 014°14'0 0.0
2015-Aug-28 00:33N 40°33' E 014°14'0 0.0
2015-Aug-27 23:33N 40°33' E 014°14'0 0.0
2015-Aug-27 22:34N 40°33' E 014°14'0 0.0
2015-Aug-27 21:29N 40°33' E 014°14'1 0.7
2015-Aug-27 20:33N 40°34' E 014°15'5 4.6
2015-Aug-27 19:33N 40°38' E 014°16'6 5.5
2015-Aug-27 18:33N 40°44' E 014°17'6 5.5
2015-Aug-27 17:31N 40°49' E 014°18'1 0.9
2015-Aug-27 16:33N 40°50' E 014°17'0 0.0
2015-Aug-27 15:33N 40°50' E 014°17'0 0.0
2015-Aug-27 14:33N 40°50' E 014°17'0 0.0
2015-Aug-27 13:33N 40°50' E 014°17'0 0.0
2015-Aug-27 12:33N 40°50' E 014°17'0 0.0
2015-Aug-26 11:15N 40°50' E 014°17'0 0.1
2015-Aug-26 10:33N 40°50' E 014°17'0 0.0
2015-Aug-26 09:33N 40°50' E 014°17'0 0.0
2015-Aug-26 08:33N 40°50' E 014°17'0 0.0
2015-Aug-26 07:32N 40°50' E 014°17'1 0.0
2015-Aug-25 11:09N 40°50' E 014°16'0 0.0
2015-Aug-25 10:06N 40°50' E 014°16'1 1.4
2015-Aug-25 09:32N 40°50' E 014°17'0 0.0
2015-Aug-25 08:33N 40°50' E 014°17'0 0.0
2015-Aug-25 07:34N 40°50' E 014°17'0 0.0
2015-Aug-25 06:28N 40°50' E 014°17'1 0.1
2015-Aug-24 14:08N 40°50' E 014°15'1 2.6
2015-Aug-24 13:33N 40°50' E 014°17'0 0.0
2015-Aug-24 12:33N 40°50' E 014°17'0 0.0
2015-Aug-24 11:33N 40°50' E 014°17'0 0.0
2015-Aug-24 10:33N 40°50' E 014°17'0 0.0
2015-Aug-24 09:33N 40°50' E 014°17'0 0.0
2015-Aug-24 08:33N 40°50' E 014°17'0 0.0
2015-Aug-24 07:33N 40°50' E 014°17'0 0.0
2015-Aug-24 06:33N 40°50' E 014°17'  
2015-Aug-21 06:31N 40°50' E 014°16'5 5.0
2015-Aug-21 05:34N 40°45' E 014°17'5 5.4
2015-Aug-21 04:33N 40°40' E 014°16'5 5.3
2015-Aug-21 03:33N 40°35' E 014°15'1 1.5
2015-Aug-21 02:33N 40°33' E 014°14'0 0.0
2015-Aug-21 01:33N 40°33' E 014°14'0 0.0
2015-Aug-21 00:33N 40°33' E 014°14'0 0.0
2015-Aug-20 23:33N 40°33' E 014°14'0 0.0
2015-Aug-20 22:32N 40°33' E 014°14'0 0.0
2015-Aug-20 21:31N 40°33' E 014°14'1 1.4
2015-Aug-20 20:33N 40°35' E 014°15'5 5.1
2015-Aug-20 19:32N 40°40' E 014°16'5 5.2
2015-Aug-20 18:33N 40°45' E 014°17'5 5.1
2015-Aug-20 17:32N 40°50' E 014°18'0 0.3
2015-Aug-20 16:32N 40°50' E 014°17'0 0.0
2015-Aug-20 15:33N 40°50' E 014°17'0 0.0
2015-Aug-20 14:32N 40°50' E 014°17'0 0.0
2015-Aug-20 13:24N 40°50' E 014°17'0 0.0
2015-Aug-20 12:21N 40°50' E 014°17'0 0.0
2015-Aug-20 11:29N 40°50' E 014°17'0 0.0
2015-Aug-20 10:33N 40°50' E 014°17'0 0.0
2015-Aug-20 09:33N 40°50' E 014°17'1 0.0
2015-Aug-19 12:33N 40°50' E 014°16'1 0.6
2015-Aug-19 11:07N 40°50' E 014°17'0 0.0
2015-Aug-19 10:30N 40°50' E 014°17'0 0.0
2015-Aug-19 09:22N 40°50' E 014°17'0 0.0
2015-Aug-19 08:23N 40°50' E 014°17'0 0.0
2015-Aug-19 07:26N 40°50' E 014°17'  

Dump ship's entire track history